Time;durP1;ratioP1;P1;durP2;ratioP2;P2;SDS_P1;SDS_P2;PMS_P1;PMS_P2;Temp;Humidity;BMP_temperature;BMP_pressure;BME280_temperature;BME280_humidity;BME280_pressure;Samples;Min_cycle;Max_cycle;Signal;HPM_P1;HPM_P2
2022/07/04 00:00:05;;;;;;;5.55;2.17;;;;;;;14.33;96.89;101195.16;690650;28;1559;-43
2022/07/04 00:00:26;;;;;;;5.45;2.22;;;;;;;14.31;97.68;101203.06;690390;28;921;-43
2022/07/04 00:00:46;;;;;;;3.55;2.10;;;;;;;14.29;98.09;101196.97;690418;28;1391;-44
2022/07/04 00:01:07;;;;;;;3.15;2.08;;;;;;;14.34;97.64;101194.28;690028;28;1347;-46
2022/07/04 00:01:27;;;;;;;4.23;2.20;;;;;;;14.36;97.09;101198.63;691406;28;1296;-45
2022/07/04 00:01:47;;;;;;;5.03;2.13;;;;;;;14.42;96.95;101202.94;690670;28;4356;-45
2022/07/04 00:02:08;;;;;;;6.13;2.23;;;;;;;14.44;97.28;101198.53;689189;28;1180;-44
2022/07/04 00:02:28;;;;;;;4.10;1.95;;;;;;;14.43;98.43;101204.69;690361;28;1186;-43
2022/07/04 00:02:50;;;;;;;3.77;2.10;;;;;;;14.44;98.25;101201.16;690950;28;1044;-45
2022/07/04 00:03:10;;;;;;;3.60;2.13;;;;;;;14.41;98.25;101201.19;687206;28;1140;-43
2022/07/04 00:03:31;;;;;;;4.30;2.00;;;;;;;14.40;97.45;101192.44;687648;28;932;-43
2022/07/04 00:03:51;;;;;;;3.63;1.90;;;;;;;14.46;95.87;101202.03;688145;28;780;-43
2022/07/04 00:04:11;;;;;;;3.05;1.83;;;;;;;14.47;96.30;101199.38;688592;28;1014;-44
2022/07/04 00:04:32;;;;;;;3.30;2.00;;;;;;;14.48;95.47;101198.50;688244;28;857;-44
2022/07/04 00:04:52;;;;;;;3.00;2.00;;;;;;;14.51;95.24;101201.97;686645;28;4227;-43
2022/07/04 00:05:13;;;;;;;3.17;1.93;;;;;;;14.52;95.33;101199.31;689921;28;1240;-43
2022/07/04 00:05:33;;;;;;;3.38;2.10;;;;;;;14.48;96.04;101200.22;691249;28;859;-44
2022/07/04 00:05:54;;;;;;;3.53;2.13;;;;;;;14.46;96.41;101197.63;691248;28;979;-43
2022/07/04 00:06:14;;;;;;;3.22;2.00;;;;;;;14.44;95.91;101201.16;690756;28;919;-43
2022/07/04 00:06:35;;;;;;;6.47;2.10;;;;;;;14.45;95.61;101203.81;689941;28;958;-44
2022/07/04 00:06:55;;;;;;;5.07;2.15;;;;;;;14.44;96.10;101202.06;690462;28;1532;-43
2022/07/04 00:07:15;;;;;;;4.07;2.00;;;;;;;14.43;95.86;101196.81;689793;28;956;-44
2022/07/04 00:07:37;;;;;;;3.83;2.08;;;;;;;14.40;96.70;101204.72;689907;28;4435;-44
2022/07/04 00:07:57;;;;;;;4.07;2.10;;;;;;;14.39;95.81;101190.69;690122;28;817;-44
2022/07/04 00:08:17;;;;;;;4.43;2.10;;;;;;;14.35;96.75;101196.03;690506;28;1073;-43
2022/07/04 00:08:38;;;;;;;4.18;2.40;;;;;;;14.30;97.54;101198.69;687746;28;1156;-44
2022/07/04 00:08:58;;;;;;;4.47;2.50;;;;;;;14.26;98.16;101196.97;687937;28;1242;-43
2022/07/04 00:09:19;;;;;;;3.83;2.20;;;;;;;14.30;96.82;101196.06;687002;28;1123;-44
2022/07/04 00:09:40;;;;;;;3.60;2.00;;;;;;;14.32;96.95;101196.94;688024;28;1124;-44
2022/07/04 00:10:00;;;;;;;3.45;2.05;;;;;;;14.31;96.67;101201.31;686516;28;1001;-43
2022/07/04 00:10:20;;;;;;;5.63;2.10;;;;;;;14.29;97.01;101196.97;686854;28;953;-46
2022/07/04 00:10:41;;;;;;;4.60;2.10;;;;;;;14.30;96.42;101199.59;690160;28;4383;-43
2022/07/04 00:11:02;;;;;;;3.95;2.10;;;;;;;14.34;96.24;101200.41;689934;28;1079;-43
2022/07/04 00:11:22;;;;;;;3.93;2.30;;;;;;;14.33;97.04;101200.41;689586;28;1243;-42
2022/07/04 00:11:42;;;;;;;3.70;2.17;;;;;;;14.28;98.20;101189.97;690804;28;1071;-43
2022/07/04 00:12:03;;;;;;;3.70;2.27;;;;;;;14.28;98.89;101195.22;690323;28;1138;-44
2022/07/04 00:12:23;;;;;;;4.53;2.20;;;;;;;14.26;98.90;101191.72;690294;28;1296;-43
2022/07/04 00:12:44;;;;;;;4.90;2.23;;;;;;;14.21;99.20;101189.16;690489;28;1919;-43
2022/07/04 00:13:05;;;;;;;4.18;2.35;;;;;;;14.18;98.95;101204.97;690083;28;1347;-43
2022/07/04 00:13:26;;;;;;;3.50;2.08;;;;;;;14.19;98.66;101205.84;690819;28;1177;-45
2022/07/04 00:13:46;;;;;;;4.05;2.17;;;;;;;14.26;97.09;101202.25;691947;28;4535;-44
2022/07/04 00:14:06;;;;;;;4.60;2.10;;;;;;;14.36;96.71;101210.91;691904;28;1140;-44
2022/07/04 00:14:27;;;;;;;4.00;2.10;;;;;;;14.36;97.55;101201.28;693478;28;1113;-44
2022/07/04 00:14:47;;;;;;;4.00;2.10;;;;;;;14.37;96.78;101205.66;689544;28;1286;-42
2022/07/04 00:15:09;;;;;;;4.07;2.07;;;;;;;14.37;96.83;101208.28;690316;28;1282;-43
2022/07/04 00:15:29;;;;;;;3.88;2.20;;;;;;;14.37;96.49;101202.13;689778;28;1401;-43
2022/07/04 00:15:49;;;;;;;4.67;2.00;;;;;;;14.41;95.69;101203.84;690508;28;1256;-43
2022/07/04 00:16:10;;;;;;;3.40;1.98;;;;;;;14.43;95.61;101209.97;690174;28;1186;-43
2022/07/04 00:16:30;;;;;;;3.60;2.20;;;;;;;14.43;96.17;101202.06;689890;28;1211;-43
2022/07/04 00:16:51;;;;;;;3.85;2.10;;;;;;;14.48;95.06;101202.84;690342;28;4361;-43
2022/07/04 00:17:11;;;;;;;3.67;2.03;;;;;;;14.53;94.60;101203.69;689871;28;1338;-44
2022/07/04 00:17:32;;;;;;;3.27;1.90;;;;;;;14.55;94.61;101209.81;690222;28;1341;-45
2022/07/04 00:17:52;;;;;;;3.13;2.00;;;;;;;14.58;94.26;101208.88;689513;28;1169;-44
2022/07/04 00:18:12;;;;;;;4.68;1.90;;;;;;;14.60;94.76;101205.34;690045;28;954;-46
2022/07/04 00:18:33;;;;;;;4.97;2.10;;;;;;;14.59;95.73;101201.00;690668;28;1102;-43
2022/07/04 00:18:53;;;;;;;5.97;2.37;;;;;;;14.55;95.78;101207.19;689667;28;1118;-43
2022/07/04 00:19:13;;;;;;;5.75;2.40;;;;;;;14.48;96.02;101203.75;690564;28;1010;-44
2022/07/04 00:19:34;;;;;;;3.37;2.17;;;;;;;14.43;96.11;101202.94;689388;28;4334;-43
2022/07/04 00:19:55;;;;;;;3.03;2.00;;;;;;;14.36;96.64;101205.63;690590;28;4337;-43
2022/07/04 00:20:15;;;;;;;2.87;1.90;;;;;;;14.32;96.30;101202.19;689675;28;1167;-45
2022/07/04 00:20:35;;;;;;;3.63;2.10;;;;;;;14.27;97.20;101198.72;690040;28;1071;-46
2022/07/04 00:20:56;;;;;;;3.60;2.00;;;;;;;14.33;95.49;101208.31;690276;28;1457;-44
2022/07/04 00:21:16;;;;;;;3.67;1.80;;;;;;;14.33;96.19;101206.56;687769;28;1325;-43
2022/07/04 00:21:36;;;;;;;4.00;2.00;;;;;;;14.27;96.59;101199.63;687428;28;1130;-43
2022/07/04 00:21:57;;;;;;;3.67;2.00;;;;;;;14.25;96.67;101206.66;688145;28;1003;-44
2022/07/04 00:22:17;;;;;;;3.97;2.22;;;;;;;14.20;98.03;101197.94;690053;28;982;-44
2022/07/04 00:22:38;;;;;;;4.53;2.50;;;;;;;14.15;98.67;101197.13;689535;28;4395;-43
2022/07/04 00:22:59;;;;;;;3.33;2.28;;;;;;;14.13;98.58;101201.53;690510;28;1111;-45
2022/07/04 00:23:19;;;;;;;4.47;2.40;;;;;;;14.12;98.32;101203.28;690537;28;1172;-43
2022/07/04 00:23:39;;;;;;;5.70;2.40;;;;;;;14.13;98.42;101204.16;690517;28;1106;-43
2022/07/04 00:24:00;;;;;;;4.40;2.40;;;;;;;14.15;97.73;101205.03;690130;28;1336;-43
2022/07/04 00:24:21;;;;;;;3.33;2.13;;;;;;;14.19;97.51;101200.59;689872;28;1051;-45
2022/07/04 00:24:41;;;;;;;3.83;2.00;;;;;;;14.18;97.06;101199.72;689938;28;1087;-43
2022/07/04 00:25:03;;;;;;;3.97;1.90;;;;;;;14.21;96.85;101206.72;690640;28;1108;-43
2022/07/04 00:25:23;;;;;;;4.00;2.20;;;;;;;14.17;98.13;101208.50;691304;28;1152;-44
2022/07/04 00:25:43;;;;;;;3.70;2.03;;;;;;;14.12;98.62;101202.41;689467;28;4435;-44
2022/07/04 00:26:04;;;;;;;3.10;2.00;;;;;;;14.05;99.65;101206.00;689815;28;1290;-44
2022/07/04 00:26:24;;;;;;;3.13;2.10;;;;;;;14.03;99.72;101205.16;687128;28;1218;-43
2022/07/04 00:26:44;;;;;;;3.40;2.20;;;;;;;14.06;98.79;101205.09;690996;28;1127;-43
2022/07/04 00:27:05;;;;;;;5.17;2.20;;;;;;;14.10;97.93;101199.78;690507;28;1311;-43
2022/07/04 00:27:26;;;;;;;5.10;2.05;;;;;;;14.16;97.09;101201.47;687127;28;1301;-43
2022/07/04 00:27:46;;;;;;;3.77;2.10;;;;;;;14.13;97.36;101207.63;687756;28;1113;-44
2022/07/04 00:28:07;;;;;;;3.33;2.00;;;;;;;14.12;97.66;101199.78;686839;28;1032;-43
2022/07/04 00:28:27;;;;;;;3.40;2.10;;;;;;;14.14;96.55;101204.13;687079;28;1128;-44
2022/07/04 00:28:48;;;;;;;3.40;2.10;;;;;;;14.17;96.11;101203.22;687585;28;4542;-43
2022/07/04 00:29:08;;;;;;;3.77;2.10;;;;;;;14.14;96.83;101203.28;690617;28;1314;-45
2022/07/04 00:29:29;;;;;;;4.03;2.30;;;;;;;14.15;96.25;101205.03;690018;28;1301;-43
2022/07/04 00:29:50;;;;;;;4.13;2.30;;;;;;;14.24;95.61;101204.03;687714;28;1083;-43
2022/07/04 00:30:11;;;;;;;3.92;2.00;;;;;;;14.26;95.43;101203.13;686130;28;1157;-43
2022/07/04 00:30:31;;;;;;;3.83;2.05;;;;;;;14.21;96.85;101204.94;687814;28;1298;-43
2022/07/04 00:30:51;;;;;;;3.20;1.93;;;;;;;14.18;96.11;101198.84;687370;28;1261;-47
2022/07/04 00:31:12;;;;;;;3.23;1.87;;;;;;;14.25;95.24;101201.38;687496;28;1281;-43
2022/07/04 00:31:33;;;;;;;3.87;2.20;;;;;;;14.26;95.92;101202.25;690828;28;1047;-43
2022/07/04 00:31:54;;;;;;;4.28;2.10;;;;;;;14.23;95.99;101197.91;693092;28;4756;-43
2022/07/04 00:32:14;;;;;;;4.35;2.03;;;;;;;14.20;95.67;101202.34;692688;28;1042;-44
2022/07/04 00:32:35;;;;;;;3.03;2.00;;;;;;;14.18;96.07;101202.34;693078;28;998;-45
2022/07/04 00:32:55;;;;;;;3.20;2.10;;;;;;;14.20;95.26;101202.34;693397;28;1950;-43
2022/07/04 00:33:16;;;;;;;4.47;2.10;;;;;;;14.25;94.52;101201.38;692511;28;937;-43
2022/07/04 00:33:36;;;;;;;5.25;2.10;;;;;;;14.30;94.46;101204.84;690350;28;975;-44
2022/07/04 00:33:57;;;;;;;3.83;2.00;;;;;;;14.38;94.21;101206.50;691029;28;1051;-43
2022/07/04 00:34:17;;;;;;;4.13;2.10;;;;;;;14.43;93.78;101202.94;690169;28;1030;-44
2022/07/04 00:34:38;;;;;;;3.90;2.10;;;;;;;14.50;94.00;101206.34;690117;28;4385;-42
2022/07/04 00:34:58;;;;;;;3.27;2.13;;;;;;;14.47;95.57;101201.16;690307;28;1095;-45
2022/07/04 00:35:18;;;;;;;3.47;2.20;;;;;;;14.41;96.52;101201.19;691930;28;1018;-43
2022/07/04 00:35:39;;;;;;;3.60;2.10;;;;;;;14.38;96.15;101202.09;693031;28;1135;-45
2022/07/04 00:36:00;;;;;;;3.90;1.90;;;;;;;14.29;97.65;101202.22;693815;28;1110;-45
2022/07/04 00:36:20;;;;;;;3.80;1.90;;;;;;;14.23;96.55;101202.28;689703;28;1206;-44
2022/07/04 00:36:40;;;;;;;3.55;2.10;;;;;;;14.25;95.34;101201.38;687665;28;1060;-44
2022/07/04 00:37:01;;;;;;;3.20;2.03;;;;;;;14.24;95.66;101202.25;687473;28;1115;-45
2022/07/04 00:37:21;;;;;;;3.50;1.83;;;;;;;14.13;97.47;101202.38;685169;28;1421;-43
2022/07/04 00:37:42;;;;;;;4.83;2.10;;;;;;;14.05;97.76;101200.72;683767;28;4288;-43
2022/07/04 00:38:02;;;;;;;4.80;2.13;;;;;;;13.99;97.88;101199.03;684453;28;1104;-43
2022/07/04 00:38:22;;;;;;;5.00;2.10;;;;;;;13.94;97.94;101199.09;687406;28;1111;-43
2022/07/04 00:38:43;;;;;;;4.13;2.00;;;;;;;14.00;96.18;101197.28;690780;28;1113;-42
2022/07/04 00:39:03;;;;;;;3.92;2.00;;;;;;;14.06;96.02;101197.22;690478;28;1126;-43
2022/07/04 00:39:24;;;;;;;3.80;2.10;;;;;;;14.05;97.24;101195.47;689673;28;1114;-43
2022/07/04 00:39:44;;;;;;;3.55;2.25;;;;;;;13.98;98.94;101204.31;693372;28;1159;-43
2022/07/04 00:40:05;;;;;;;4.70;2.33;;;;;;;13.89;98.92;101198.28;692492;28;1202;-45
2022/07/04 00:40:25;;;;;;;4.53;2.20;;;;;;;13.87;99.19;101197.41;689953;28;1067;-43
2022/07/04 00:40:46;;;;;;;3.70;2.10;;;;;;;13.89;98.88;101200.03;686904;28;4450;-42
2022/07/04 00:41:06;;;;;;;3.58;2.00;;;;;;;13.93;97.50;101193.88;685268;28;1412;-44
2022/07/04 00:41:27;;;;;;;3.53;1.90;;;;;;;13.99;96.67;101190.28;685336;28;982;-43
2022/07/04 00:41:47;;;;;;;3.35;2.10;;;;;;;14.02;96.59;101195.50;685176;28;1016;-44
2022/07/04 00:42:08;;;;;;;3.17;2.00;;;;;;;14.06;96.73;101199.84;685844;28;916;-44
2022/07/04 00:42:28;;;;;;;3.45;2.00;;;;;;;14.07;97.88;101193.72;684897;28;4811;-43
2022/07/04 00:42:49;;;;;;;3.10;2.03;;;;;;;14.03;97.84;101195.50;688247;28;1223;-44
2022/07/04 00:43:09;;;;;;;3.00;2.00;;;;;;;13.98;99.22;101197.28;689844;28;1245;-43
2022/07/04 00:43:29;;;;;;;3.63;2.00;;;;;;;13.94;99.31;101199.09;690940;28;939;-44
2022/07/04 00:44:00;;;;;;;4.47;2.17;;;;;;;13.96;98.56;101194.69;690482;28;4582;-43
2022/07/04 00:44:20;;;;;;;4.10;2.17;;;;;;;13.94;98.88;101191.22;689656;28;1692;-43
2022/07/04 00:44:41;;;;;;;3.75;2.10;;;;;;;13.96;98.53;101194.69;690507;28;1007;-42
2022/07/04 00:45:01;;;;;;;4.67;2.07;;;;;;;13.97;98.72;101195.56;692932;28;1067;-43
2022/07/04 00:45:21;;;;;;;4.97;2.22;;;;;;;13.96;98.73;101194.69;693182;28;1131;-43
2022/07/04 00:45:42;;;;;;;4.53;2.17;;;;;;;13.90;99.04;101192.13;690149;28;1099;-43
2022/07/04 00:46:05;;;;;;;3.60;2.10;;;;;;;13.84;99.12;101186.91;690722;28;1064;-43
2022/07/04 00:46:29;;;;;;;3.63;2.10;;;;;;;13.77;99.75;101187.88;688852;28;1657;-43
2022/07/04 00:46:49;;;;;;;3.53;2.05;;;;;;;13.76;99.53;101191.38;689457;28;4463;-44
2022/07/04 00:47:12;;;;;;;4.20;2.03;;;;;;;13.82;97.94;101196.59;690447;28;963;-43
2022/07/04 00:47:32;;;;;;;4.50;2.20;;;;;;;13.82;97.85;101196.59;690554;28;904;-43
2022/07/04 00:47:53;;;;;;;4.27;2.27;;;;;;;13.84;98.88;101193.94;690859;28;1030;-44
2022/07/04 00:48:15;;;;;;;4.03;2.10;;;;;;;13.76;99.99;101194.00;690669;28;967;-43
2022/07/04 00:48:36;;;;;;;3.00;2.00;;;;;;;13.68;100.00;101194.09;690461;28;824;-42
2022/07/04 00:48:56;;;;;;;3.20;2.00;;;;;;;13.59;100.00;101195.03;689642;28;1001;-44
2022/07/04 00:49:18;;;;;;;3.57;2.10;;;;;;;13.52;100.00;101197.75;690448;28;977;-43
2022/07/04 00:49:40;;;;;;;2.92;2.00;;;;;;;13.48;100.00;101196.88;689730;28;5639;-43
2022/07/04 00:50:00;;;;;;;3.55;2.10;;;;;;;13.46;100.00;101198.66;690951;28;1070;-45
2022/07/04 00:50:21;;;;;;;4.10;2.20;;;;;;;13.41;100.00;101200.44;690254;28;1343;-42
2022/07/04 00:50:43;;;;;;;4.15;2.20;;;;;;;13.39;100.00;101195.22;690051;28;1095;-43
2022/07/04 00:51:04;;;;;;;4.03;2.00;;;;;;;13.28;100.00;101197.88;690862;28;1094;-43
2022/07/04 00:51:25;;;;;;;3.10;2.00;;;;;;;13.23;100.00;101194.41;690403;28;1045;-43
2022/07/04 00:51:46;;;;;;;4.35;2.08;;;;;;;13.28;100.00;101194.41;690769;28;1107;-44
2022/07/04 00:52:07;;;;;;;3.55;2.13;;;;;;;13.33;100.00;101199.59;690713;28;1111;-43
2022/07/04 00:52:28;;;;;;;4.30;2.20;;;;;;;13.34;100.00;101191.72;690776;28;1095;-42
2022/07/04 00:52:48;;;;;;;3.85;2.40;;;;;;;13.34;100.00;101194.34;688688;28;5197;-43
2022/07/04 00:53:09;;;;;;;3.53;2.10;;;;;;;13.26;100.00;101190.91;687708;28;1265;-43
2022/07/04 00:53:29;;;;;;;3.00;2.00;;;;;;;13.21;100.00;101188.31;687983;28;954;-42
2022/07/04 00:53:50;;;;;;;3.72;2.15;;;;;;;13.16;100.00;101189.22;687951;28;1309;-43
2022/07/04 00:54:14;;;;;;;4.75;2.22;;;;;;;13.13;100.00;101190.13;687090;28;1192;-43
2022/07/04 00:54:35;;;;;;;3.15;2.03;;;;;;;13.15;100.00;101187.47;689293;28;1119;-45
2022/07/04 00:54:55;;;;;;;3.63;2.20;;;;;;;13.18;100.00;101185.72;690372;28;1307;-44
2022/07/04 00:55:17;;;;;;;3.73;2.20;;;;;;;13.28;100.00;101189.16;689248;28;1413;-44
2022/07/04 00:55:38;;;;;;;3.50;2.10;;;;;;;13.27;100.00;101183.00;690293;28;4283;-43
2022/07/04 00:55:58;;;;;;;3.53;2.03;;;;;;;13.36;100.00;101187.38;690699;28;1160;-43
2022/07/04 00:56:20;;;;;;;4.13;1.90;;;;;;;13.34;100.00;101178.56;690418;28;1129;-44
2022/07/04 00:56:42;;;;;;;3.90;2.13;;;;;;;13.28;100.00;101186.53;689981;28;1031;-43
2022/07/04 00:57:03;;;;;;;3.28;1.98;;;;;;;13.31;100.00;101183.00;688908;28;1074;-43
2022/07/04 00:57:23;;;;;;;3.88;2.00;;;;;;;13.42;100.00;101179.41;687737;28;1142;-42
2022/07/04 00:57:44;;;;;;;4.57;2.20;;;;;;;13.49;100.00;101182.00;687299;28;1075;-44
2022/07/04 00:58:04;;;;;;;4.40;1.95;;;;;;;13.53;99.47;101174.09;683671;28;1122;-43
2022/07/04 00:58:24;;;;;;;3.57;1.97;;;;;;;13.60;99.47;101175.75;685351;28;1076;-43
2022/07/04 00:58:45;;;;;;;5.47;2.35;;;;;;;13.67;98.94;101180.97;685429;28;4440;-43
2022/07/04 00:59:06;;;;;;;3.57;1.83;;;;;;;13.75;99.42;101179.16;686450;28;1052;-43
2022/07/04 00:59:28;;;;;;;3.67;1.80;;;;;;;13.73;98.25;101179.13;689626;28;1238;-44
2022/07/04 00:59:48;;;;;;;4.10;1.80;;;;;;;13.72;98.63;101176.53;690748;28;1139;-43
2022/07/04 01:00:09;;;;;;;3.67;2.00;;;;;;;13.75;98.30;101174.75;690617;28;1324;-44
2022/07/04 01:00:29;;;;;;;5.43;2.20;;;;;;;13.83;98.39;101173.81;690763;28;1150;-43
2022/07/04 01:00:50;;;;;;;4.17;1.90;;;;;;;13.88;97.64;101180.75;690613;28;1232;-44
2022/07/04 01:01:10;;;;;;;2.90;1.80;;;;;;;13.88;99.03;101180.75;692831;28;2069;-44
2022/07/04 01:01:31;;;;;;;3.53;1.80;;;;;;;13.86;98.38;101172.03;693055;28;1149;-45
2022/07/04 01:01:52;;;;;;;3.78;1.92;;;;;;;13.90;97.82;101172.84;692423;28;4227;-44
2022/07/04 01:02:12;;;;;;;4.43;2.07;;;;;;;13.92;98.01;101173.72;693091;28;1114;-45
2022/07/04 01:02:32;;;;;;;3.70;2.00;;;;;;;13.84;99.50;101179.03;692811;28;1087;-43
2022/07/04 01:02:53;;;;;;;3.33;1.90;;;;;;;13.76;99.92;101180.88;692106;28;1138;-43
2022/07/04 01:03:13;;;;;;;3.53;1.70;;;;;;;13.76;99.51;101175.59;690416;28;1040;-43
2022/07/04 01:03:34;;;;;;;3.90;2.00;;;;;;;13.75;98.59;101179.16;690476;28;1157;-42
2022/07/04 01:03:55;;;;;;;4.03;1.97;;;;;;;13.79;98.44;101173.84;690701;28;1079;-44
2022/07/04 01:04:16;;;;;;;3.92;1.80;;;;;;;13.77;98.91;101177.34;690490;28;951;-42
2022/07/04 01:04:36;;;;;;;3.30;1.90;;;;;;;13.70;99.46;101171.28;690180;28;4462;-43
2022/07/04 01:04:57;;;;;;;3.65;1.90;;;;;;;13.68;99.22;101175.69;690331;28;1039;-43
2022/07/04 01:05:17;;;;;;;3.60;1.73;;;;;;;13.70;98.17;101175.69;690698;28;1244;-43
2022/07/04 01:05:39;;;;;;;3.40;1.83;;;;;;;13.72;97.97;101176.53;690534;28;1014;-42
2022/07/04 01:06:00;;;;;;;2.95;1.80;;;;;;;13.83;97.12;101172.06;690862;28;1271;-43
2022/07/04 01:06:21;;;;;;;3.08;1.67;;;;;;;13.92;97.16;101169.31;690565;28;1034;-43
2022/07/04 01:06:42;;;;;;;4.07;2.10;;;;;;;13.93;96.92;101171.06;690433;28;1273;-43
2022/07/04 01:07:04;;;;;;;3.08;1.90;;;;;;;13.94;96.36;101171.94;693040;28;1214;-43
2022/07/04 01:07:24;;;;;;;3.10;1.75;;;;;;;13.95;96.14;101179.78;690316;28;1170;-42
2022/07/04 01:07:45;;;;;;;3.30;1.80;;;;;;;13.95;96.79;101171.91;689937;28;4627;-43
2022/07/04 01:08:06;;;;;;;3.53;1.90;;;;;;;13.90;97.43;101170.22;690077;28;1320;-43
2022/07/04 01:08:26;;;;;;;3.92;1.90;;;;;;;13.86;97.17;101174.66;690613;28;1048;-42
2022/07/04 01:08:47;;;;;;;3.20;1.80;;;;;;;13.85;97.02;101175.53;690569;28;1391;-42
2022/07/04 01:09:07;;;;;;;3.50;1.70;;;;;;;13.85;97.81;101172.91;690494;28;1218;-43
2022/07/04 01:09:27;;;;;;;4.40;1.80;;;;;;;13.85;97.28;101167.66;690531;28;925;-43
2022/07/04 01:09:48;;;;;;;2.93;1.90;;;;;;;13.82;97.31;101174.69;692874;28;1334;-43
2022/07/04 01:10:09;;;;;;;3.63;1.90;;;;;;;13.83;96.05;101173.81;692343;28;978;-43
2022/07/04 01:10:30;;;;;;;3.28;1.88;;;;;;;13.86;96.01;101177.28;690925;28;1051;-43
2022/07/04 01:10:50;;;;;;;3.05;1.65;;;;;;;13.82;96.28;101177.31;689265;28;4574;-43
2022/07/04 01:11:12;;;;;;;3.00;1.70;;;;;;;13.85;96.76;101175.53;690192;28;1366;-43
2022/07/04 01:11:32;;;;;;;2.65;1.83;;;;;;;13.91;95.87;101175.44;690610;28;1554;-43
2022/07/04 01:11:53;;;;;;;3.20;1.77;;;;;;;13.86;97.18;101177.28;689680;28;1046;-46
2022/07/04 01:12:27;;;;;;;3.45;1.83;;;;;;;13.80;97.33;101177.31;689668;28;1095;-42
2022/07/04 01:12:48;;;;;;;2.75;1.80;;;;;;;13.78;96.70;101172.09;689933;28;1985;-43
2022/07/04 01:13:19;;;;;;;3.37;1.77;;;;;;;13.76;97.51;101175.59;689903;28;1037;-43
2022/07/04 01:13:43;;;;;;;2.58;1.90;;;;;;;13.69;98.70;101173.94;690134;28;4534;-43
2022/07/04 01:14:06;;;;;;;3.92;1.98;;;;;;;13.56;99.96;101175.81;690588;28;1284;-43
2022/07/04 01:14:26;;;;;;;3.70;2.00;;;;;;;13.47;99.95;101178.50;691044;28;1239;-44
2022/07/04 01:14:46;;;;;;;4.10;1.90;;;;;;;13.48;99.44;101173.25;691200;28;1150;-44
2022/07/04 01:15:08;;;;;;;3.33;1.88;;;;;;;13.56;98.40;101174.03;690396;28;978;-42
2022/07/04 01:15:28;;;;;;;3.33;2.00;;;;;;;13.55;100.00;101176.69;691389;28;1154;-42
2022/07/04 01:15:50;;;;;;;3.80;2.00;;;;;;;13.47;100.00;101175.88;686172;28;1344;-42
2022/07/04 01:16:11;;;;;;;2.53;1.70;;;;;;;13.40;100.00;101172.44;685999;28;3906;-45
2022/07/04 01:16:33;;;;;;;3.08;1.80;;;;;;;13.37;100.00;101173.31;690819;28;1246;-44
2022/07/04 01:16:53;;;;;;;3.30;1.75;;;;;;;13.38;100.00;101180.31;690297;28;4612;-45
2022/07/04 01:17:13;;;;;;;3.23;1.80;;;;;;;13.39;99.97;101174.19;689387;28;1286;-43
2022/07/04 01:17:35;;;;;;;3.15;1.83;;;;;;;13.40;99.90;101173.31;690414;28;1186;-42
2022/07/04 01:17:55;;;;;;;3.47;2.10;;;;;;;13.36;100.00;101178.59;693039;28;1245;-42
2022/07/04 01:18:16;;;;;;;3.93;2.00;;;;;;;13.27;100.00;101177.75;692910;28;1212;-42
2022/07/04 01:18:37;;;;;;;4.13;2.00;;;;;;;13.23;100.00;101176.03;693411;28;1264;-44
2022/07/04 01:18:57;;;;;;;3.00;1.88;;;;;;;13.22;100.00;101176.94;693239;28;1300;-44
2022/07/04 01:19:18;;;;;;;3.23;1.90;;;;;;;13.16;100.00;101176.09;692435;28;1749;-42
2022/07/04 01:19:38;;;;;;;3.33;1.98;;;;;;;13.09;100.00;101176.13;692847;28;4389;-43
2022/07/04 01:19:59;;;;;;;3.93;2.00;;;;;;;13.11;100.00;101176.13;693142;28;1281;-44
2022/07/04 01:20:19;;;;;;;3.25;1.90;;;;;;;13.09;100.00;101177.91;692345;28;1106;-44
2022/07/04 01:20:39;;;;;;;3.37;1.80;;;;;;;13.10;100.00;101177.03;690491;28;1360;-42
2022/07/04 01:21:00;;;;;;;3.57;1.80;;;;;;;13.14;100.00;101177.84;690392;28;1142;-42
2022/07/04 01:21:21;;;;;;;3.03;1.85;;;;;;;13.18;100.00;101172.59;689055;28;1179;-44
2022/07/04 01:21:41;;;;;;;3.30;1.90;;;;;;;13.20;100.00;101178.69;693483;28;1158;-43
2022/07/04 01:22:06;;;;;;;3.83;1.83;;;;;;;13.26;100.00;101176.03;693059;28;1023;-42
2022/07/04 01:22:27;;;;;;;5.13;2.50;;;;;;;13.24;100.00;101179.53;693080;28;1065;-44
2022/07/04 01:22:47;;;;;;;3.03;1.90;;;;;;;13.22;100.00;101179.56;692454;28;4344;-42
2022/07/04 01:23:08;;;;;;;5.17;1.93;;;;;;;13.21;100.00;101174.28;693246;28;1174;-44
2022/07/04 01:23:28;;;;;;;6.10;2.05;;;;;;;13.21;100.00;101174.28;691794;28;1161;-44
2022/07/04 01:23:48;;;;;;;3.43;2.00;;;;;;;13.19;100.00;101179.56;690311;28;900;-44
2022/07/04 01:24:12;;;;;;;3.47;2.00;;;;;;;13.16;100.00;101179.59;690290;28;1110;-44
2022/07/04 01:24:33;;;;;;;3.15;1.85;;;;;;;13.14;100.00;101177.84;689830;28;1158;-45
2022/07/04 01:24:53;;;;;;;5.67;2.10;;;;;;;13.10;100.00;101172.63;689877;28;1111;-45
2022/07/04 01:25:14;;;;;;;5.03;2.00;;;;;;;13.11;100.00;101181.38;690213;28;1091;-43
2022/07/04 01:25:34;;;;;;;3.10;1.80;;;;;;;13.11;100.00;101182.25;690871;28;4365;-42
2022/07/04 01:25:56;;;;;;;3.20;2.00;;;;;;;13.08;100.00;101176.16;690247;28;1119;-42
2022/07/04 01:26:16;;;;;;;4.30;1.98;;;;;;;13.10;100.00;101177.88;690333;28;1090;-44
2022/07/04 01:26:37;;;;;;;4.30;2.10;;;;;;;13.19;100.00;101179.56;689757;28;1205;-43
2022/07/04 01:26:57;;;;;;;4.35;2.00;;;;;;;13.24;100.00;101172.53;691196;28;1194;-43
2022/07/04 01:27:18;;;;;;;2.97;1.70;;;;;;;13.24;100.00;101177.78;691113;28;1134;-45
2022/07/04 01:27:38;;;;;;;3.58;1.92;;;;;;;13.19;100.00;101176.94;691059;28;1285;-44
2022/07/04 01:28:00;;;;;;;3.67;2.00;;;;;;;13.20;100.00;101180.44;691567;28;1229;-44
2022/07/04 01:28:24;;;;;;;4.18;2.00;;;;;;;13.24;100.00;101176.91;690761;28;1038;-45
2022/07/04 01:28:45;;;;;;;4.60;1.90;;;;;;;13.25;100.00;101174.28;691244;28;4630;-44
2022/07/04 01:29:05;;;;;;;4.32;2.00;;;;;;;13.19;100.00;101173.44;690774;28;1162;-43
2022/07/04 01:29:25;;;;;;;3.37;1.97;;;;;;;13.13;100.00;101179.63;691257;28;1168;-43
2022/07/04 01:29:46;;;;;;;4.60;2.38;;;;;;;13.11;100.00;101178.75;691138;28;1110;-43
2022/07/04 01:30:08;;;;;;;3.87;2.20;;;;;;;13.07;100.00;101177.03;690743;28;1004;-43
2022/07/04 01:30:29;;;;;;;3.70;2.00;;;;;;;13.12;100.00;101183.13;691286;28;1000;-44
2022/07/04 01:30:50;;;;;;;4.20;1.85;;;;;;;13.15;100.00;101177.84;691999;28;971;-42
2022/07/04 01:31:11;;;;;;;4.45;2.00;;;;;;;13.12;100.00;101177.88;690620;28;1277;-43
2022/07/04 01:31:31;;;;;;;4.43;2.20;;;;;;;13.08;100.00;101187.53;691644;28;1293;-44
2022/07/04 01:31:53;;;;;;;4.97;2.30;;;;;;;13.09;100.00;101183.16;690960;28;4326;-46
2022/07/04 01:32:13;;;;;;;4.20;1.90;;;;;;;13.13;100.00;101178.75;690695;28;1130;-45
2022/07/04 01:32:34;;;;;;;3.03;1.90;;;;;;;13.12;100.00;101177.88;691271;28;1308;-44
2022/07/04 01:32:55;;;;;;;3.57;2.00;;;;;;;13.08;100.00;101181.41;691531;28;1942;-42
2022/07/04 01:33:17;;;;;;;3.97;2.10;;;;;;;13.04;100.00;101179.66;691776;28;1232;-42
2022/07/04 01:33:38;;;;;;;2.65;1.80;;;;;;;13.00;100.00;101177.94;690918;28;1183;-45
2022/07/04 01:33:58;;;;;;;2.92;1.88;;;;;;;12.95;100.00;101175.38;690560;28;1360;-43
2022/07/04 01:34:19;;;;;;;3.73;2.00;;;;;;;12.98;100.00;101184.97;691327;28;975;-44
2022/07/04 01:34:40;;;;;;;3.53;1.90;;;;;;;12.98;100.00;101179.72;690852;28;4463;-42
2022/07/04 01:35:00;;;;;;;3.70;2.00;;;;;;;12.98;100.00;101179.72;690434;28;1181;-43
2022/07/04 01:35:21;;;;;;;3.87;1.90;;;;;;;12.94;100.00;101181.50;691210;28;1042;-43
2022/07/04 01:35:42;;;;;;;3.80;1.90;;;;;;;12.92;100.00;101175.41;691378;28;1070;-44
2022/07/04 01:36:02;;;;;;;3.15;1.90;;;;;;;12.92;100.00;101180.63;691594;28;1011;-44
2022/07/04 01:36:23;;;;;;;4.53;1.97;;;;;;;12.89;100.00;101176.28;691725;28;1137;-42
2022/07/04 01:36:43;;;;;;;3.22;1.90;;;;;;;12.87;100.00;101183.28;691552;28;884;-43
2022/07/04 01:37:04;;;;;;;3.93;2.00;;;;;;;12.87;100.00;101178.03;691413;28;1082;-45
2022/07/04 01:37:24;;;;;;;5.50;2.00;;;;;;;12.82;100.00;101185.06;694262;28;1117;-43
2022/07/04 01:37:45;;;;;;;5.43;2.00;;;;;;;12.84;100.00;101185.06;693577;28;4545;-44
2022/07/04 01:38:05;;;;;;;4.80;2.10;;;;;;;12.83;100.00;101181.53;693910;28;1079;-44
2022/07/04 01:38:26;;;;;;;3.47;1.92;;;;;;;12.84;100.00;101185.91;694248;28;1067;-43
2022/07/04 01:38:46;;;;;;;4.63;2.00;;;;;;;12.79;100.00;101179.81;693480;28;1087;-44